createdAt,value
2022-11-02T00:00:30.711Z,0
2022-11-02T00:05:34.911Z,0
2022-11-02T00:10:39.051Z,0
2022-11-02T00:15:43.205Z,0
2022-11-02T00:20:47.370Z,0
2022-11-02T00:25:51.550Z,0
2022-11-02T00:30:55.683Z,0
2022-11-02T00:35:59.831Z,0
2022-11-02T00:41:04.024Z,0
2022-11-02T00:46:08.162Z,0
2022-11-02T00:51:12.367Z,0
2022-11-02T00:56:16.476Z,0
2022-11-02T01:01:20.802Z,0
2022-11-02T01:06:24.843Z,0
2022-11-02T01:11:28.973Z,0
2022-11-02T01:16:33.225Z,0
2022-11-02T01:21:37.417Z,0
2022-11-02T01:26:41.635Z,0
2022-11-02T01:31:45.626Z,0
2022-11-02T01:36:49.793Z,0
2022-11-02T01:41:53.930Z,0
2022-11-02T01:46:58.126Z,0
2022-11-02T01:52:02.274Z,0
2022-11-02T01:57:04.546Z,0
2022-11-02T02:02:08.766Z,0
2022-11-02T02:07:12.871Z,0
2022-11-02T02:12:17.019Z,0
2022-11-02T02:17:21.167Z,0
2022-11-02T02:22:25.342Z,0
2022-11-02T02:27:27.587Z,0
2022-11-02T02:32:31.742Z,0
2022-11-02T02:37:35.911Z,0
2022-11-02T02:42:40.086Z,0
2022-11-02T02:47:44.241Z,0
2022-11-02T02:52:48.420Z,0
2022-11-02T02:57:52.564Z,0
2022-11-02T03:02:56.803Z,0
2022-11-02T03:08:01.083Z,0
2022-11-02T03:13:05.055Z,0
2022-11-02T03:18:09.212Z,0
2022-11-02T03:23:13.372Z,0
2022-11-02T03:28:17.555Z,0
2022-11-02T03:33:21.700Z,0
2022-11-02T03:38:25.859Z,0
2022-11-02T03:43:29.985Z,0
2022-11-02T03:48:34.191Z,0
2022-11-02T03:53:38.317Z,0
2022-11-02T03:58:42.504Z,0
2022-11-02T04:03:46.614Z,0
2022-11-02T04:08:50.825Z,0
2022-11-02T04:13:54.968Z,0
2022-11-02T04:18:59.126Z,0
2022-11-02T04:24:03.330Z,0
2022-11-02T04:29:07.461Z,0
2022-11-02T04:34:11.625Z,0
2022-11-02T04:39:15.760Z,0
2022-11-02T04:44:20.820Z,0
2022-11-02T04:49:24.084Z,0
2022-11-02T04:54:28.274Z,0
2022-11-02T04:59:32.427Z,0
2022-11-02T05:04:36.576Z,0
2022-11-02T05:09:40.772Z,0
2022-11-02T05:14:44.881Z,0
2022-11-02T05:19:49.057Z,0
2022-11-02T05:24:53.213Z,0
2022-11-02T05:29:57.409Z,0
2022-11-02T05:35:01.555Z,0
2022-11-02T05:40:05.686Z,0
2022-11-02T05:45:09.872Z,0
2022-11-02T05:50:14.029Z,0
2022-11-02T05:55:18.164Z,0
2022-11-02T06:00:22.366Z,0
2022-11-02T06:05:26.660Z,3
2022-11-02T06:10:30.702Z,9
2022-11-02T06:15:34.876Z,20
2022-11-02T06:20:39.011Z,41
2022-11-02T06:25:43.134Z,77
2022-11-02T06:30:47.293Z,148
2022-11-02T06:35:51.483Z,202
2022-11-02T06:40:55.642Z,281
2022-11-02T06:45:59.805Z,373
2022-11-02T06:51:03.935Z,397
2022-11-02T06:56:08.173Z,652
2022-11-02T07:01:12.386Z,620
2022-11-02T07:06:16.403Z,742
2022-11-02T07:11:20.606Z,711
2022-11-02T07:16:24.757Z,1045
2022-11-02T07:21:28.896Z,1223
2022-11-02T07:26:33.081Z,1325
2022-11-02T07:31:37.269Z,1482
2022-11-02T07:36:41.384Z,1625
2022-11-02T07:41:50.744Z,2168
2022-11-02T07:46:49.720Z,1996
2022-11-02T07:51:53.878Z,2625
2022-11-02T07:56:56.147Z,2148
2022-11-02T08:02:00.294Z,2455
2022-11-02T08:07:04.480Z,2148
2022-11-02T08:12:08.655Z,2465
2022-11-02T08:17:12.816Z,1868
2022-11-02T08:22:16.917Z,2334
2022-11-02T08:27:21.117Z,2042
2022-11-02T08:32:25.295Z,1775
2022-11-02T08:37:29.467Z,2080
2022-11-02T08:42:33.580Z,2868
2022-11-02T08:47:37.791Z,4171
2022-11-02T08:52:41.897Z,3704
2022-11-02T08:57:46.099Z,3626
2022-11-02T09:02:50.287Z,3695
2022-11-02T09:07:54.404Z,5065
2022-11-02T09:12:58.562Z,4391
2022-11-02T09:18:03.224Z,4485
2022-11-02T09:23:06.863Z,4445
2022-11-02T09:28:11.241Z,3917
2022-11-02T09:33:15.208Z,4139
2022-11-02T09:38:19.368Z,3789
2022-11-02T09:43:27.051Z,3464
2022-11-02T09:48:28.735Z,2851
2022-11-02T09:53:31.837Z,2012
2022-11-02T09:58:35.999Z,4515
2022-11-02T10:03:40.150Z,2594
2022-11-02T10:08:44.290Z,2775
2022-11-02T10:13:51.245Z,3770
2022-11-02T10:18:54.662Z,6172
2022-11-02T10:23:56.796Z,5113
2022-11-02T10:29:00.950Z,2703
2022-11-02T10:34:05.257Z,3253
2022-11-02T10:39:09.313Z,3198
2022-11-02T10:44:13.430Z,3700
2022-11-02T10:49:17.594Z,3205
2022-11-02T10:54:26.650Z,3666
2022-11-02T10:59:25.975Z,4419
2022-11-02T11:04:30.081Z,2894
2022-11-02T11:09:34.240Z,2745
2022-11-02T11:19:42.543Z,4755
2022-11-02T11:24:46.789Z,2582
2022-11-02T11:29:50.918Z,3164
2022-11-02T11:34:55.066Z,3159
2022-11-02T11:45:03.363Z,4695
2022-11-02T11:50:15.402Z,3463
2022-11-02T11:55:11.677Z,2200
2022-11-02T12:00:15.963Z,2029
2022-11-02T12:05:20.031Z,2353
2022-11-02T12:10:24.171Z,2017
2022-11-02T12:15:28.293Z,2115
2022-11-02T12:20:32.481Z,2029
2022-11-02T12:25:36.654Z,3268
2022-11-02T12:30:40.812Z,1770
2022-11-02T12:37:18.095Z,2037
2022-11-02T12:40:49.224Z,2203
2022-11-02T12:45:53.437Z,1895
2022-11-02T12:50:57.461Z,1872
2022-11-02T12:56:01.576Z,2121
2022-11-02T13:01:10.762Z,2393
2022-11-02T13:06:09.922Z,2137
2022-11-02T13:16:18.214Z,1727
2022-11-02T13:21:22.481Z,1896
2022-11-02T13:26:24.686Z,2490
2022-11-02T13:31:28.883Z,2481
2022-11-02T13:36:32.991Z,2897
2022-11-02T13:41:37.140Z,2065
2022-11-02T13:46:41.301Z,1887
2022-11-02T13:51:45.471Z,1838
2022-11-02T13:56:49.614Z,1671
2022-11-02T14:01:53.926Z,1723
2022-11-02T14:06:57.948Z,1641
2022-11-02T14:12:02.096Z,1797
2022-11-02T14:17:06.224Z,2906
2022-11-02T14:22:10.514Z,2080
2022-11-02T14:27:14.612Z,1691
2022-11-02T14:32:18.745Z,1607
2022-11-02T14:37:22.881Z,1601
2022-11-02T14:42:27.045Z,1491
2022-11-02T14:47:31.247Z,1326
2022-11-02T14:52:35.357Z,1389
2022-11-02T14:57:39.561Z,1335
2022-11-02T15:02:43.697Z,1325
2022-11-02T15:07:47.845Z,1268
2022-11-02T15:12:51.982Z,1203
2022-11-02T15:17:56.192Z,1129
2022-11-02T15:23:00.432Z,985
2022-11-02T15:28:04.679Z,775
2022-11-02T15:33:09.274Z,622
2022-11-02T15:38:18.009Z,506
2022-11-02T15:43:16.967Z,413
2022-11-02T15:48:21.157Z,339
2022-11-02T15:53:25.279Z,271
2022-11-02T15:58:29.468Z,221
2022-11-02T16:03:33.620Z,155
2022-11-02T16:08:37.809Z,102
2022-11-02T16:13:49.099Z,63
2022-11-02T16:18:46.134Z,34
2022-11-02T16:23:50.272Z,15
2022-11-02T16:28:54.404Z,5
2022-11-02T16:33:58.589Z,1
2022-11-02T16:39:02.723Z,0
2022-11-02T16:44:08.948Z,0
2022-11-02T16:49:11.077Z,0
2022-11-02T16:54:15.273Z,0
2022-11-02T16:59:19.392Z,0
2022-11-02T17:04:23.559Z,0
2022-11-02T17:09:27.678Z,0
2022-11-02T17:14:31.850Z,0
2022-11-02T17:19:36.037Z,0
2022-11-02T17:24:40.186Z,0
2022-11-02T17:29:44.383Z,0
2022-11-02T17:34:48.535Z,0
2022-11-02T17:39:52.673Z,0
2022-11-02T17:44:56.921Z,0
2022-11-02T17:50:01.113Z,0
2022-11-02T17:55:05.148Z,0
2022-11-02T18:00:09.313Z,0
2022-11-02T18:05:13.473Z,0
2022-11-02T18:10:17.648Z,0
2022-11-02T18:15:21.776Z,0
2022-11-02T18:20:25.996Z,0
2022-11-02T18:25:30.153Z,0
2022-11-02T18:30:34.294Z,0
2022-11-02T18:35:38.419Z,0
2022-11-02T18:40:42.654Z,0
2022-11-02T18:45:46.780Z,0
2022-11-02T18:50:50.932Z,0
2022-11-02T18:55:53.213Z,0
2022-11-02T19:00:57.536Z,0
2022-11-02T19:06:01.535Z,0
2022-11-02T19:11:05.685Z,0
2022-11-02T19:16:09.927Z,0
2022-11-02T19:21:14.035Z,0
2022-11-02T19:26:16.352Z,0
2022-11-02T19:31:20.452Z,0
2022-11-02T19:36:24.563Z,0
2022-11-02T19:41:28.774Z,0
2022-11-02T19:46:34.028Z,0
2022-11-02T19:51:37.079Z,0
2022-11-02T19:56:41.261Z,0
2022-11-02T20:01:45.511Z,0
2022-11-02T20:06:49.650Z,0
2022-11-02T20:11:53.740Z,0
2022-11-02T20:17:10.806Z,0
2022-11-02T20:22:02.119Z,0
2022-11-02T20:27:06.200Z,0
2022-11-02T20:37:14.514Z,0
2022-11-02T20:42:18.646Z,0
2022-11-02T20:47:22.862Z,0
2022-11-02T20:52:27.010Z,0
2022-11-02T20:57:31.175Z,0
2022-11-02T21:02:35.393Z,0
2022-11-02T21:07:39.508Z,0
2022-11-02T21:12:43.802Z,0
2022-11-02T21:17:47.795Z,0
2022-11-02T21:22:51.952Z,0
2022-11-02T21:27:56.130Z,0
2022-11-02T21:33:00.295Z,0
2022-11-02T21:38:06.948Z,0
2022-11-02T21:43:08.926Z,0
2022-11-02T21:48:12.809Z,0
2022-11-02T21:53:16.942Z,0
2022-11-02T21:58:21.072Z,0
2022-11-02T22:03:25.262Z,0
2022-11-02T22:13:33.577Z,0
2022-11-02T22:18:37.718Z,0
2022-11-02T22:23:41.921Z,0
2022-11-02T22:28:46.060Z,0
2022-11-02T22:33:50.215Z,0
2022-11-02T22:38:54.437Z,0
2022-11-02T22:43:58.549Z,0
2022-11-02T22:49:02.746Z,0
2022-11-02T22:54:06.897Z,0
2022-11-02T22:59:11.043Z,0
2022-11-02T23:04:15.174Z,0
2022-11-02T23:09:19.350Z,0
2022-11-02T23:14:23.541Z,0
2022-11-02T23:19:29.001Z,0
2022-11-02T23:24:31.823Z,0
2022-11-02T23:29:35.999Z,0
2022-11-02T23:34:40.177Z,0
2022-11-02T23:39:44.333Z,0
2022-11-02T23:44:48.478Z,0
2022-11-02T23:49:52.633Z,0
2022-11-02T23:54:56.816Z,0
